createdAt,value
2016-11-29T00:00:28.255Z,181.49
2016-11-29T00:01:28.309Z,181.2
2016-11-29T00:02:28.115Z,180.95
2016-11-29T00:03:28.317Z,179.96
2016-11-29T00:04:28.296Z,179.51
2016-11-29T00:05:28.225Z,179.26
2016-11-29T00:06:28.255Z,179.01
2016-11-29T00:07:28.354Z,176.29
2016-11-29T00:08:28.189Z,176.78
2016-11-29T00:09:28.194Z,175.57
2016-11-29T00:10:28.210Z,175.04
2016-11-29T00:11:28.212Z,174.34
2016-11-29T00:12:28.159Z,177.27
2016-11-29T00:13:28.307Z,179.03
2016-11-29T00:14:28.258Z,175.04
2016-11-29T00:15:28.342Z,175.88
2016-11-29T00:16:28.286Z,174.19
2016-11-29T00:17:28.196Z,174.67
2016-11-29T00:18:28.251Z,175.69
2016-11-29T00:19:28.236Z,175.64
2016-11-29T00:20:28.263Z,174.44
2016-11-29T00:21:28.300Z,172.95
2016-11-29T00:22:28.322Z,170.82
2016-11-29T00:23:28.304Z,172.06
2016-11-29T00:24:28.308Z,172
2016-11-29T00:25:28.285Z,172.24
2016-11-29T00:26:28.165Z,172
2016-11-29T00:27:28.248Z,169.1
2016-11-29T00:28:28.198Z,168.82
2016-11-29T00:29:28.168Z,170.73
2016-11-29T00:30:28.255Z,169.23
2016-11-29T00:31:28.582Z,171.41
2016-11-29T00:32:28.278Z,171.94
2016-11-29T00:33:28.290Z,171.76
2016-11-29T00:34:28.295Z,171.15
2016-11-29T00:35:28.251Z,171.44
2016-11-29T00:36:28.341Z,171.17
2016-11-29T00:37:28.755Z,169.44
2016-11-29T00:38:28.325Z,170.46
2016-11-29T00:39:28.342Z,168.75
2016-11-29T00:40:28.330Z,166.86
2016-11-29T00:41:28.290Z,164.88
2016-11-29T00:42:28.290Z,164.35
2016-11-29T00:43:28.318Z,162.63
2016-11-29T00:44:28.244Z,161.9
2016-11-29T00:45:28.389Z,164.41
2016-11-29T00:46:28.243Z,161.87
2016-11-29T00:47:28.320Z,161.15
2016-11-29T00:48:28.321Z,160.16
2016-11-29T00:49:28.338Z,161.4
2016-11-29T00:50:28.330Z,162.14
2016-11-29T00:51:28.355Z,161.87
2016-11-29T00:52:28.217Z,159.86
2016-11-29T00:53:28.206Z,160.11
2016-11-29T00:54:28.298Z,163.53
2016-11-29T00:55:28.471Z,161.79
2016-11-29T00:56:28.303Z,161.07
2016-11-29T00:57:28.207Z,160.82
2016-11-29T00:58:28.342Z,158.4
2016-11-29T00:59:28.423Z,158.66
2016-11-29T01:00:28.366Z,160.4
2016-11-29T01:01:28.574Z,162.36
2016-11-29T01:02:28.386Z,160.64
2016-11-29T01:03:38.279Z,156.2
2016-11-29T01:04:28.436Z,155.98
2016-11-29T01:05:28.324Z,157.74
2016-11-29T01:06:28.614Z,156.97
2016-11-29T01:07:28.253Z,158.95
2016-11-29T01:08:28.455Z,156.73
2016-11-29T01:09:28.444Z,157.21
2016-11-29T01:10:28.838Z,156.02
2016-11-29T01:11:28.644Z,156.5
2016-11-29T01:12:28.417Z,156.8
2016-11-29T01:13:28.377Z,156.06
2016-11-29T01:14:28.713Z,154.27
2016-11-29T01:15:28.967Z,152.58
2016-11-29T01:16:28.773Z,155.04
2016-11-29T01:17:28.362Z,154.28
2016-11-29T01:18:28.895Z,156.04
2016-11-29T01:19:28.855Z,154.1
2016-11-29T01:20:28.880Z,152.06
2016-11-29T01:21:28.925Z,153.37
2016-11-29T01:22:28.836Z,152.13
2016-11-29T01:23:28.727Z,149.35
2016-11-29T01:24:28.857Z,149.12
2016-11-29T01:25:28.665Z,153.31
2016-11-29T01:26:28.678Z,152.61
2016-11-29T01:27:28.550Z,151.31
2016-11-29T01:28:28.660Z,151.77
2016-11-29T01:29:28.503Z,151.31
2016-11-29T01:30:28.592Z,148.35
2016-11-29T01:31:28.529Z,148.12
2016-11-29T01:32:28.664Z,148.17
2016-11-29T01:33:28.821Z,145.69
2016-11-29T01:34:28.839Z,146.9
2016-11-29T01:35:28.526Z,143.46
2016-11-29T01:36:28.702Z,145.71
2016-11-29T01:37:28.588Z,145.17
2016-11-29T01:38:28.700Z,146.12
2016-11-29T01:39:29.301Z,145.2
2016-11-29T01:40:28.634Z,143.17
2016-11-29T01:41:28.803Z,143.16
2016-11-29T01:42:28.693Z,141.47
2016-11-29T01:43:28.570Z,141.73
2016-11-29T01:44:28.651Z,140.22
2016-11-29T01:45:28.955Z,137.26
2016-11-29T01:46:28.968Z,140.7
2016-11-29T01:47:28.475Z,139.22
2016-11-29T01:48:29.057Z,141.95
2016-11-29T01:49:28.887Z,141.21
2016-11-29T01:50:28.392Z,136.87
2016-11-29T01:51:28.789Z,139.39
2016-11-29T01:52:28.415Z,136.41
2016-11-29T01:53:28.674Z,135.62
2016-11-29T01:54:28.514Z,136.61
2016-11-29T01:55:28.660Z,137.11
2016-11-29T01:56:28.418Z,137.12
2016-11-29T01:57:28.892Z,134.87
2016-11-29T01:58:28.518Z,135.09
2016-11-29T01:59:28.629Z,132.8
2016-11-29T02:00:29.039Z,132.52
2016-11-29T02:01:28.379Z,132.31
2016-11-29T02:02:28.455Z,133.59
2016-11-29T02:03:28.554Z,132.77
2016-11-29T02:04:28.674Z,131.53
2016-11-29T02:05:28.599Z,130.54
2016-11-29T02:06:28.734Z,131.55
2016-11-29T02:07:28.493Z,128.02
2016-11-29T02:08:28.814Z,128.75
2016-11-29T02:09:28.383Z,126.77
2016-11-29T02:10:29.710Z,129.19
2016-11-29T02:11:28.677Z,130.76
2016-11-29T02:12:29.411Z,131.99
2016-11-29T02:13:28.599Z,132.25
2016-11-29T02:14:29.177Z,132.23
2016-11-29T02:15:28.524Z,132.7
2016-11-29T02:16:29.198Z,131.91
2016-11-29T02:17:28.779Z,131.12
2016-11-29T02:18:29.059Z,129.94
2016-11-29T02:19:28.581Z,129.39
2016-11-29T02:20:28.886Z,130.89
2016-11-29T02:21:28.564Z,126.97
2016-11-29T02:22:39.254Z,128.23
2016-11-29T02:23:28.848Z,130.08
2016-11-29T02:24:28.834Z,129.16
2016-11-29T02:25:28.579Z,128.41
2016-11-29T02:26:28.364Z,125.35
2016-11-29T02:27:28.624Z,125.37
2016-11-29T02:28:28.483Z,123.6
2016-11-29T02:29:28.591Z,125.13
2016-11-29T02:30:28.806Z,125.83
2016-11-29T02:31:28.485Z,127.08
2016-11-29T02:32:28.567Z,126.59
2016-11-29T02:33:28.772Z,130.15
2016-11-29T02:34:28.617Z,128.86
2016-11-29T02:35:28.729Z,128.35
2016-11-29T02:36:29.108Z,127.83
2016-11-29T02:37:28.709Z,129.58
2016-11-29T02:38:28.641Z,131.34
2016-11-29T02:39:28.802Z,129.07
2016-11-29T02:40:29.280Z,127.78
2016-11-29T02:41:28.558Z,130.29
2016-11-29T02:42:28.490Z,124.59
2016-11-29T02:43:28.623Z,123.08
2016-11-29T02:44:28.707Z,121.58
2016-11-29T02:45:28.629Z,122.81
2016-11-29T02:46:28.619Z,124.84
2016-11-29T02:47:29.737Z,121.58
2016-11-29T02:48:28.816Z,120.79
2016-11-29T02:49:28.687Z,120.57
2016-11-29T02:50:28.699Z,119.56
2016-11-29T02:51:28.945Z,120.79
2016-11-29T02:52:28.907Z,118.3
2016-11-29T02:53:28.745Z,118.54
2016-11-29T02:54:28.522Z,116.02
2016-11-29T02:55:28.518Z,113.93
2016-11-29T02:56:28.520Z,115.92
2016-11-29T02:57:28.752Z,114.69
2016-11-29T02:58:28.959Z,114.46
2016-11-29T02:59:28.884Z,113.76
2016-11-29T03:00:28.881Z,113.98
2016-11-29T03:01:28.725Z,113.67
2016-11-29T03:02:28.804Z,112.44
2016-11-29T03:03:29.015Z,111.74
2016-11-29T03:04:28.728Z,111.23
2016-11-29T03:05:28.808Z,113.01
2016-11-29T03:06:28.459Z,113.26
2016-11-29T03:07:28.557Z,110.29
2016-11-29T03:08:28.958Z,109.53
2016-11-29T03:09:28.673Z,110.23
2016-11-29T03:10:28.850Z,109.01
2016-11-29T03:11:28.751Z,108.25
2016-11-29T03:12:28.772Z,108.99
2016-11-29T03:13:28.982Z,106.77
2016-11-29T03:14:28.885Z,104.78
2016-11-29T03:15:29.163Z,105.34
2016-11-29T03:16:28.822Z,103.55
2016-11-29T03:17:30.435Z,102.61
2016-11-29T03:18:28.632Z,103.57
2016-11-29T03:19:28.624Z,105.33
2016-11-29T03:20:28.633Z,104.4
2016-11-29T03:21:28.549Z,100.86
2016-11-29T03:22:28.585Z,102.11
2016-11-29T03:23:28.788Z,102.32
2016-11-29T03:24:28.650Z,101.83
2016-11-29T03:25:28.691Z,101.11
2016-11-29T03:26:28.755Z,100.4
2016-11-29T03:27:28.658Z,97.88
2016-11-29T03:28:28.635Z,97.15
2016-11-29T03:29:28.801Z,99.68
2016-11-29T03:30:28.729Z,98.45
2016-11-29T03:31:28.524Z,97.9
2016-11-29T03:32:28.713Z,97.91
2016-11-29T03:33:28.543Z,97.16
2016-11-29T03:34:28.887Z,98.38
2016-11-29T03:35:28.681Z,99.41
2016-11-29T03:36:29.163Z,97.41
2016-11-29T03:37:28.753Z,95.66
2016-11-29T03:38:28.678Z,95.39
2016-11-29T03:39:28.868Z,95.38
2016-11-29T03:40:29.117Z,97.94
2016-11-29T03:41:28.935Z,94.93
2016-11-29T03:42:28.674Z,92.69
2016-11-29T03:43:29.028Z,90.38
2016-11-29T03:44:29.199Z,92.97
2016-11-29T03:45:28.911Z,92.43
2016-11-29T03:46:28.824Z,88.93
2016-11-29T03:47:28.837Z,89.11
2016-11-29T03:48:28.489Z,88.35
2016-11-29T03:49:29.022Z,88.11
2016-11-29T03:50:28.941Z,88.62
2016-11-29T03:51:28.492Z,87.85
2016-11-29T03:52:28.831Z,88.33
2016-11-29T03:53:28.736Z,87.82
2016-11-29T03:54:28.610Z,85.81
2016-11-29T03:55:28.901Z,85.1
2016-11-29T03:56:28.823Z,87.1
2016-11-29T03:57:28.911Z,88.14
2016-11-29T03:58:28.592Z,87.88
2016-11-29T03:59:28.714Z,85.57
2016-11-29T04:00:29.280Z,83.51
2016-11-29T04:01:28.734Z,85.8
2016-11-29T04:02:29.039Z,83.75
2016-11-29T04:03:28.800Z,82.46
2016-11-29T04:04:29.087Z,80.68
2016-11-29T04:05:28.578Z,82.2
2016-11-29T04:06:29.054Z,84.31
2016-11-29T04:07:28.671Z,83.21
2016-11-29T04:08:28.720Z,82.45
2016-11-29T04:09:28.698Z,79.73
2016-11-29T04:10:28.681Z,78.12
2016-11-29T04:11:28.580Z,77.59
2016-11-29T04:12:28.609Z,78.64
2016-11-29T04:13:29.222Z,80.18
2016-11-29T04:14:28.800Z,80.96
2016-11-29T04:15:28.872Z,80.99
2016-11-29T04:16:28.942Z,79.24
2016-11-29T04:17:28.951Z,82.52
2016-11-29T04:18:28.794Z,78.45
2016-11-29T04:19:29.014Z,74.38
2016-11-29T04:20:28.738Z,74.6
2016-11-29T04:21:28.651Z,74.93
2016-11-29T04:22:28.585Z,73.9
2016-11-29T04:23:28.559Z,72.63
2016-11-29T04:24:28.883Z,73.95
2016-11-29T04:25:28.807Z,72.92
2016-11-29T04:26:29.131Z,70.81
2016-11-29T04:27:28.896Z,69.57
2016-11-29T04:28:28.493Z,70.79
2016-11-29T04:29:28.657Z,69.82
2016-11-29T04:30:28.583Z,69.8
2016-11-29T04:31:29.023Z,69.52
2016-11-29T04:32:28.835Z,68.28
2016-11-29T04:33:28.570Z,68.03
2016-11-29T04:34:28.507Z,65.48
2016-11-29T04:35:28.727Z,62.86
2016-11-29T04:36:28.870Z,64.7
2016-11-29T04:37:28.998Z,64.4
2016-11-29T04:38:28.903Z,63.69
2016-11-29T04:39:28.553Z,63.61
2016-11-29T04:40:28.768Z,62.58
2016-11-29T04:41:28.695Z,64.4
2016-11-29T04:42:28.931Z,66.73
2016-11-29T04:43:28.504Z,62.41
2016-11-29T04:44:28.585Z,62.11
2016-11-29T04:45:28.454Z,61.68
2016-11-29T04:46:28.525Z,61.48
2016-11-29T04:47:28.477Z,59.7
2016-11-29T04:48:28.453Z,56.91
2016-11-29T04:52:57.444Z,56.84
2016-11-29T04:53:57.685Z,55.82
2016-11-29T04:54:57.456Z,52.76
2016-11-29T04:55:57.541Z,50.21
2016-11-29T04:56:57.375Z,50.73
2016-11-29T04:57:57.493Z,52.34
2016-11-29T04:58:57.622Z,52.84
2016-11-29T04:59:57.570Z,51.78
2016-11-29T05:00:57.545Z,52.31
2016-11-29T05:01:57.525Z,50.79
2016-11-29T05:02:57.676Z,48.44
2016-11-29T05:03:57.681Z,47.89
2016-11-29T05:04:57.587Z,45.91
2016-11-29T05:05:57.593Z,47.92
2016-11-29T05:06:57.450Z,50.79
2016-11-29T05:07:57.671Z,48.98
2016-11-29T05:08:57.802Z,48.41
2016-11-29T05:09:57.414Z,46.68
2016-11-29T05:10:57.549Z,46.68
2016-11-29T05:11:57.643Z,46.14
2016-11-29T05:12:57.620Z,41.77
2016-11-29T05:13:57.480Z,43.12
2016-11-29T05:14:57.711Z,42.33
2016-11-29T05:15:57.836Z,42.15
2016-11-29T05:16:57.730Z,41.13
2016-11-29T05:17:57.767Z,40.92
2016-11-29T05:18:57.626Z,41.69
2016-11-29T05:19:57.475Z,36.05
2016-11-29T05:20:57.773Z,41.47
2016-11-29T05:21:57.928Z,39.18
2016-11-29T05:22:57.569Z,40.45
2016-11-29T05:23:57.936Z,40.19
2016-11-29T05:24:57.660Z,38.16
2016-11-29T05:25:57.579Z,36.53
2016-11-29T05:26:57.580Z,41.23
2016-11-29T05:27:57.805Z,40.54
2016-11-29T05:28:57.512Z,41.55
2016-11-29T05:29:57.707Z,41.82
2016-11-29T05:30:57.702Z,43.41
2016-11-29T05:31:57.953Z,38.27
2016-11-29T05:32:58.316Z,40.58
2016-11-29T05:33:57.922Z,42.08
2016-11-29T05:34:57.752Z,41.3
2016-11-29T05:35:57.614Z,43.12
2016-11-29T05:36:57.969Z,42.83
2016-11-29T05:37:57.738Z,43.28
2016-11-29T05:38:57.912Z,43.06
2016-11-29T05:39:58.289Z,44.63
2016-11-29T05:40:57.798Z,45.7
2016-11-29T05:41:57.946Z,42.84
2016-11-29T05:42:58.537Z,42.3
2016-11-29T05:43:58.037Z,41.8
2016-11-29T05:44:57.751Z,41.34
2016-11-29T05:45:57.871Z,40.03
2016-11-29T05:46:57.939Z,39.04
2016-11-29T05:47:57.550Z,40.25
2016-11-29T05:48:57.978Z,42.08
2016-11-29T05:49:57.627Z,40.32
2016-11-29T05:50:57.834Z,38.51
2016-11-29T05:51:58.317Z,36.21
2016-11-29T05:52:58.007Z,36.49
2016-11-29T05:53:58.199Z,39.32
2016-11-29T05:54:57.813Z,38.3
2016-11-29T05:55:58.028Z,39.38
2016-11-29T05:56:57.898Z,38.23
2016-11-29T05:57:57.781Z,35.21
2016-11-29T05:58:57.572Z,34.11
2016-11-29T05:59:58.103Z,35.64
2016-11-29T06:00:57.999Z,29.72
2016-11-29T06:01:57.996Z,32.61
2016-11-29T06:02:58.028Z,35.2
2016-11-29T06:03:58.879Z,34.16
2016-11-29T06:04:58.277Z,34.15
2016-11-29T06:05:57.898Z,31.77
2016-11-29T06:06:57.911Z,32.62
2016-11-29T06:07:57.801Z,32.34
2016-11-29T06:08:58.059Z,33.02
2016-11-29T06:09:57.995Z,32.34
2016-11-29T06:10:57.837Z,31.08
2016-11-29T06:11:58.481Z,31.65
2016-11-29T06:12:57.613Z,33.18
2016-11-29T06:13:57.846Z,31.9
2016-11-29T06:14:58.159Z,33.51
2016-11-29T06:15:58.497Z,33.51
2016-11-29T06:16:58.152Z,30.93
2016-11-29T06:17:57.803Z,33.81
2016-11-29T06:18:57.908Z,30.94
2016-11-29T06:19:57.693Z,28.35
2016-11-29T06:20:58.062Z,28.32
2016-11-29T06:21:57.796Z,29.88
2016-11-29T06:22:57.746Z,26
2016-11-29T06:23:57.937Z,26.77
2016-11-29T06:24:57.906Z,28.05
2016-11-29T06:25:57.909Z,25.68
2016-11-29T06:26:57.603Z,25.15
2016-11-29T06:27:57.815Z,22.84
2016-11-29T06:28:57.827Z,21.8
2016-11-29T06:29:57.831Z,23.31
2016-11-29T06:30:57.753Z,22.53
2016-11-29T06:31:57.860Z,21.84
2016-11-29T06:32:58.438Z,22.88
2016-11-29T06:33:57.873Z,24.73
2016-11-29T06:34:57.821Z,25.21
2016-11-29T06:35:57.949Z,24.18
2016-11-29T06:36:57.855Z,21.94
2016-11-29T06:37:57.790Z,21.34
2016-11-29T06:38:58.414Z,22.89
2016-11-29T06:39:57.767Z,20.3
2016-11-29T06:40:58.096Z,18.73
2016-11-29T06:41:58.354Z,14.64
2016-11-29T06:42:57.939Z,14.89
2016-11-29T06:43:57.613Z,18.59
2016-11-29T06:44:58.002Z,16.26
2016-11-29T06:45:57.569Z,17.1
2016-11-29T06:46:57.595Z,17.91
2016-11-29T06:47:57.497Z,17.46
2016-11-29T06:48:57.627Z,15.65
2016-11-29T06:49:57.816Z,18.51
2016-11-29T06:50:57.767Z,17.98
2016-11-29T06:51:57.681Z,19.28
2016-11-29T06:52:57.845Z,17.69
2016-11-29T06:53:57.910Z,19.57
2016-11-29T06:54:57.916Z,19.08
2016-11-29T06:55:57.634Z,19.52
2016-11-29T06:56:57.731Z,19.86
2016-11-29T06:57:57.622Z,17.52
2016-11-29T06:58:57.676Z,18.86
2016-11-29T06:59:57.837Z,19.61
2016-11-29T07:00:59.865Z,22.7
2016-11-29T07:01:57.793Z,22.17
2016-11-29T07:02:57.788Z,21.46
2016-11-29T07:04:02.494Z,17.32
2016-11-29T07:08:32.275Z,19.5
2016-11-29T07:09:32.137Z,18.17
2016-11-29T07:10:32.216Z,19.47
2016-11-29T07:11:32.237Z,18.24
2016-11-29T07:12:32.246Z,18.44
2016-11-29T07:13:32.344Z,17.72
2016-11-29T07:14:32.087Z,18.25
2016-11-29T07:15:32.001Z,20.3
2016-11-29T07:16:31.993Z,20.62
2016-11-29T07:17:32.079Z,21.42
2016-11-29T07:18:32.059Z,21.97
2016-11-29T07:19:32.137Z,22.74
2016-11-29T07:20:32.064Z,22.75
2016-11-29T07:21:32.081Z,24.56
2016-11-29T07:22:32.786Z,26.73
2016-11-29T07:23:32.257Z,26.02
2016-11-29T07:24:32.236Z,24.97
2016-11-29T07:25:32.328Z,27.88
2016-11-29T07:26:32.334Z,28.65
2016-11-29T07:27:32.169Z,31.33
2016-11-29T07:28:32.427Z,29.19
2016-11-29T07:29:32.120Z,29.23
2016-11-29T07:30:32.025Z,30.85
2016-11-29T07:31:32.201Z,32.91
2016-11-29T07:32:32.183Z,32.14
2016-11-29T07:33:32.340Z,29.86
2016-11-29T07:34:32.287Z,31.45
2016-11-29T07:35:32.313Z,34.24
2016-11-29T07:36:32.010Z,36.1
2016-11-29T07:37:32.241Z,36.62
2016-11-29T07:38:32.325Z,38.16
2016-11-29T07:39:32.314Z,37.11
2016-11-29T07:40:32.320Z,38.46
2016-11-29T07:41:32.099Z,38.45
2016-11-29T07:42:32.280Z,40.36
2016-11-29T07:43:32.346Z,40.82
2016-11-29T07:44:32.205Z,41.06
2016-11-29T07:45:32.083Z,42.92
2016-11-29T07:46:32.290Z,44.81
2016-11-29T07:47:32.176Z,46.34
2016-11-29T07:48:32.159Z,47.6
2016-11-29T07:49:32.244Z,47.56
2016-11-29T07:50:32.192Z,51.51
2016-11-29T07:51:32.183Z,52.99
2016-11-29T07:52:32.187Z,52.47
2016-11-29T07:53:32.099Z,54.51
2016-11-29T07:54:32.228Z,55.85
2016-11-29T07:55:32.103Z,57.39
2016-11-29T07:56:32.316Z,59.47
2016-11-29T07:57:32.216Z,62.58
2016-11-29T07:58:32.004Z,64.1
2016-11-29T07:59:32.281Z,64.37
2016-11-29T08:00:32.172Z,65.62
2016-11-29T08:01:32.056Z,67.47
2016-11-29T08:02:32.067Z,68.23
2016-11-29T08:03:32.308Z,69.93
2016-11-29T08:04:32.250Z,73.04
2016-11-29T08:05:32.174Z,75.8
2016-11-29T08:06:32.327Z,78.35
2016-11-29T08:07:32.233Z,77.57
2016-11-29T08:08:32.272Z,81.97
2016-11-29T08:09:32.215Z,88.04
2016-11-29T08:10:32.178Z,88.78
2016-11-29T08:11:32.106Z,97.4
2016-11-29T08:12:32.167Z,99.45
2016-11-29T08:13:32.150Z,102.19
2016-11-29T08:14:32.191Z,105.57
2016-11-29T08:15:32.157Z,109.81
2016-11-29T08:16:32.173Z,111.6
2016-11-29T08:17:32.216Z,117.58
2016-11-29T08:18:32.288Z,123.63
2016-11-29T08:19:32.263Z,125.82
2016-11-29T08:20:32.105Z,129.63
2016-11-29T08:21:32.179Z,133.57
2016-11-29T08:22:32.158Z,138.58
2016-11-29T08:23:32.178Z,141.75
2016-11-29T08:24:32.355Z,146.54
2016-11-29T08:25:32.166Z,151.02
2016-11-29T08:26:32.117Z,156.69
2016-11-29T08:27:32.050Z,161.63
2016-11-29T08:28:32.174Z,165.1
2016-11-29T08:29:32.355Z,169.9
2016-11-29T08:30:32.171Z,173.64
2016-11-29T08:31:32.228Z,175.78
2016-11-29T08:32:32.100Z,183.15
2016-11-29T08:33:32.343Z,188.05
2016-11-29T08:34:32.229Z,191.94
2016-11-29T08:35:32.135Z,197.49
2016-11-29T08:36:32.242Z,202.33
2016-11-29T08:37:32.516Z,205.25
2016-11-29T08:38:32.225Z,209.82
2016-11-29T08:39:32.166Z,213.43
2016-11-29T08:40:32.662Z,218.71
2016-11-29T08:41:32.452Z,224.68
2016-11-29T08:42:32.503Z,231.36
2016-11-29T08:43:32.608Z,232.79
2016-11-29T08:44:32.652Z,239.63
2016-11-29T08:45:32.580Z,244.43
2016-11-29T08:46:32.431Z,247.63
2016-11-29T08:47:32.626Z,252.89
2016-11-29T08:48:32.689Z,257.61
2016-11-29T08:49:32.766Z,265.12
2016-11-29T08:50:32.425Z,268.86
2016-11-29T08:51:33.066Z,272.62
2016-11-29T08:52:32.757Z,278.91
2016-11-29T08:53:32.843Z,285.91
2016-11-29T08:54:32.622Z,289.46
2016-11-29T08:55:32.886Z,301.24
2016-11-29T08:56:33.188Z,300.8
2016-11-29T08:57:32.606Z,309.07
2016-11-29T08:58:33.225Z,317.12
2016-11-29T08:59:32.497Z,320.05
2016-11-29T09:00:32.620Z,323.97
2016-11-29T09:01:32.707Z,330.12
2016-11-29T09:02:33.385Z,334.26
2016-11-29T09:03:33.531Z,342.41
2016-11-29T09:04:33.431Z,348.31
2016-11-29T09:05:34.925Z,347.63
2016-11-29T09:06:32.644Z,360.25
2016-11-29T09:07:33.614Z,362.48
2016-11-29T09:08:32.587Z,369.03
2016-11-29T09:09:32.630Z,370.51
2016-11-29T09:10:32.811Z,375.83
2016-11-29T09:11:32.424Z,375.2
2016-11-29T09:12:33.447Z,376.54
2016-11-29T09:13:33.013Z,385.19
2016-11-29T09:14:32.903Z,386.32
2016-11-29T09:15:33.950Z,390.11
2016-11-29T09:16:33.448Z,393.87
2016-11-29T09:17:32.627Z,399.81
2016-11-29T09:18:33.055Z,406.15
2016-11-29T09:19:32.924Z,416.35
2016-11-29T09:20:33.440Z,427.65
2016-11-29T09:21:32.777Z,434.52
2016-11-29T09:22:32.793Z,442.8
2016-11-29T09:23:33.096Z,443.65
2016-11-29T09:24:32.878Z,447.3
2016-11-29T09:25:33.004Z,448.29
2016-11-29T09:26:32.996Z,459.53
2016-11-29T09:27:33.046Z,467.91
2016-11-29T09:28:32.823Z,476.34
2016-11-29T09:29:32.849Z,483.31
2016-11-29T09:30:33.062Z,494.04
2016-11-29T09:31:32.878Z,495.48
2016-11-29T09:32:32.716Z,501.72
2016-11-29T09:33:34.192Z,509.13
2016-11-29T09:34:33.942Z,518.09
2016-11-29T09:35:35.803Z,537.12
2016-11-29T09:36:33.252Z,559.98
2016-11-29T09:37:33.603Z,587.19
2016-11-29T09:38:32.643Z,618.83
2016-11-29T09:39:32.915Z,640.59
2016-11-29T09:40:33.166Z,655.17
2016-11-29T09:41:32.941Z,670.02
2016-11-29T09:42:33.073Z,682.98
2016-11-29T09:43:32.988Z,696.11
2016-11-29T09:44:33.165Z,711.85
2016-11-29T09:45:32.852Z,719.39
2016-11-29T09:46:32.982Z,734.74
2016-11-29T09:47:33.475Z,747.11
2016-11-29T09:48:33.437Z,759.57
2016-11-29T09:49:33.115Z,762.97
2016-11-29T09:50:33.097Z,774.92
2016-11-29T09:51:32.826Z,781.19
2016-11-29T09:52:32.859Z,789.57
2016-11-29T09:53:32.799Z,794.64
2016-11-29T09:54:33.607Z,805.33
2016-11-29T09:55:32.606Z,813.57
2016-11-29T09:56:32.777Z,828.12
2016-11-29T09:57:32.654Z,832.14
2016-11-29T09:58:32.629Z,841.73
2016-11-29T09:59:32.573Z,845.92
2016-11-29T10:00:32.793Z,851.65
2016-11-29T10:01:32.627Z,850.48
2016-11-29T10:02:32.766Z,834.08
2016-11-29T10:03:33.067Z,818.54
2016-11-29T10:04:33.110Z,788.89
2016-11-29T10:05:32.627Z,769.72
2016-11-29T10:06:32.653Z,754.04
2016-11-29T10:07:32.842Z,738.66
2016-11-29T10:08:32.664Z,728.05
2016-11-29T10:09:32.670Z,731.1
2016-11-29T10:10:32.945Z,742.09
2016-11-29T10:11:33.939Z,754.82
2016-11-29T10:12:33.445Z,765.54
2016-11-29T10:13:33.241Z,770.03
2016-11-29T10:14:35.166Z,764.96
2016-11-29T10:15:33.508Z,743.11
2016-11-29T10:16:34.272Z,730.68
2016-11-29T10:17:33.779Z,712.26
2016-11-29T10:18:35.299Z,699.21
2016-11-29T10:19:33.346Z,687.8
2016-11-29T10:20:32.939Z,678.3
2016-11-29T10:21:33.053Z,672.49
2016-11-29T10:22:32.820Z,664.79
2016-11-29T10:23:32.914Z,658.75
2016-11-29T10:24:33.093Z,651.28
2016-11-29T10:25:33.060Z,645.72
2016-11-29T10:26:32.803Z,644.79
2016-11-29T10:27:33.029Z,644.29
2016-11-29T10:28:33.329Z,639.99
2016-11-29T10:29:32.987Z,634.71
2016-11-29T10:30:33.361Z,628.51
2016-11-29T10:31:32.784Z,624.58
2016-11-29T10:32:32.943Z,625.45
2016-11-29T10:33:32.883Z,620.79
2016-11-29T10:34:32.764Z,621.31
2016-11-29T10:35:33.197Z,618.41
2016-11-29T10:36:32.715Z,614.48
2016-11-29T10:37:33.024Z,613.68
2016-11-29T10:38:32.965Z,613.4
2016-11-29T10:39:32.871Z,618.69
2016-11-29T10:40:32.805Z,619.22
2016-11-29T10:41:32.970Z,616.25
2016-11-29T10:42:33.044Z,615.25
2016-11-29T10:43:33.108Z,612.55
2016-11-29T10:44:33.786Z,607.19
2016-11-29T10:45:33.217Z,600.31
2016-11-29T10:46:32.923Z,600.51
2016-11-29T10:47:32.897Z,601.91
2016-11-29T10:48:33.298Z,603.61
2016-11-29T10:49:32.828Z,599.21
2016-11-29T10:50:33.411Z,595.77
2016-11-29T10:51:33.158Z,598.45
2016-11-29T10:52:33.259Z,594.61
2016-11-29T10:53:33.195Z,592.9
2016-11-29T10:54:33.045Z,596.17
2016-11-29T10:55:33.033Z,596.52
2016-11-29T10:56:33.206Z,595.15
2016-11-29T10:57:32.822Z,601.78
2016-11-29T10:58:33.134Z,608.31
2016-11-29T10:59:33.025Z,611.13
2016-11-29T11:00:33.059Z,613.41
2016-11-29T11:01:33.241Z,616.08
2016-11-29T11:02:32.703Z,622.3
2016-11-29T11:03:32.906Z,624.91
2016-11-29T11:04:32.919Z,630.69
2016-11-29T11:05:32.776Z,647.35
2016-11-29T11:06:34.273Z,665.43
2016-11-29T11:07:32.924Z,687.09
2016-11-29T11:08:32.866Z,705.11
2016-11-29T11:09:33.553Z,721.17
2016-11-29T11:10:33.260Z,738.17
2016-11-29T11:11:34.613Z,758.23
2016-11-29T11:12:32.935Z,768.24
2016-11-29T11:13:33.256Z,771.56
2016-11-29T11:14:33.215Z,783.1
2016-11-29T11:15:33.203Z,795.52
2016-11-29T11:16:33.175Z,806.35
2016-11-29T11:17:33.115Z,811.52
2016-11-29T11:18:33.112Z,815.76
2016-11-29T11:19:33.037Z,820.92
2016-11-29T11:20:33.985Z,823.59
2016-11-29T11:21:33.429Z,829.04
2016-11-29T11:22:33.094Z,834.65
2016-11-29T11:23:32.957Z,838.78
2016-11-29T11:24:32.771Z,838.97
2016-11-29T11:25:33.181Z,847.71
2016-11-29T11:26:32.840Z,845.73
2016-11-29T11:27:33.522Z,842.62
2016-11-29T11:28:33.142Z,835.72
2016-11-29T11:29:32.951Z,843
2016-11-29T11:30:32.868Z,838.16
2016-11-29T11:31:32.769Z,837.64
2016-11-29T11:32:32.739Z,848.34
2016-11-29T11:33:33.031Z,847.42
2016-11-29T11:34:32.849Z,848.04
2016-11-29T11:35:32.747Z,853.24
2016-11-29T11:36:32.996Z,852.11
2016-11-29T11:37:32.682Z,848.69
2016-11-29T11:38:32.592Z,837.11
2016-11-29T11:39:32.922Z,841.55
2016-11-29T11:40:32.870Z,837.97
2016-11-29T11:41:33.322Z,839.87
2016-11-29T11:42:32.698Z,839.14
2016-11-29T11:43:33.315Z,842.85
2016-11-29T11:44:32.735Z,837.29
2016-11-29T11:45:33.766Z,841.48
2016-11-29T11:46:32.730Z,844.29
2016-11-29T11:47:32.838Z,849.46
2016-11-29T11:48:33.021Z,852.25
2016-11-29T11:49:33.410Z,856.21
2016-11-29T11:50:33.003Z,861.47
2016-11-29T11:51:32.847Z,874.14
2016-11-29T11:52:32.948Z,877.59
2016-11-29T11:53:32.848Z,876.4
2016-11-29T11:54:32.695Z,882.87
2016-11-29T11:55:33.194Z,886.22
2016-11-29T11:56:32.707Z,891.61
2016-11-29T11:57:33.680Z,894.88
2016-11-29T11:58:33.437Z,902.97
2016-11-29T11:59:32.995Z,903.7
2016-11-29T12:00:33.104Z,907.82
2016-11-29T12:01:32.831Z,901.19
2016-11-29T12:02:32.793Z,902.57
2016-11-29T12:03:32.636Z,901.47
2016-11-29T12:04:32.659Z,906.14
2016-11-29T12:05:33.713Z,905.16
2016-11-29T12:06:33.013Z,903.28
2016-11-29T12:07:33.200Z,900.66
2016-11-29T12:08:34.843Z,899.64
2016-11-29T12:09:33.101Z,901.05
2016-11-29T12:10:32.840Z,890.63
2016-11-29T12:11:33.083Z,888.52
2016-11-29T12:12:33.189Z,895.83
2016-11-29T12:13:38.717Z,889.4
2016-11-29T12:14:32.845Z,876.88
2016-11-29T12:15:33.084Z,880.89
2016-11-29T12:16:33.293Z,882.25
2016-11-29T12:17:33.145Z,878.75
2016-11-29T12:18:33.264Z,873.44
2016-11-29T12:19:33.107Z,873.21
2016-11-29T12:20:34.165Z,873.88
2016-11-29T12:21:32.840Z,868.87
2016-11-29T12:22:33.183Z,873.58
2016-11-29T12:23:35.273Z,863.54
2016-11-29T12:24:33.139Z,864.53
2016-11-29T12:25:32.823Z,867.6
2016-11-29T12:26:33.087Z,871.31
2016-11-29T12:27:32.952Z,877.66
2016-11-29T12:28:33.127Z,872.97
2016-11-29T12:29:32.874Z,875.37
2016-11-29T12:30:33.052Z,888.99
2016-11-29T12:31:33.076Z,894.56
2016-11-29T12:32:33.112Z,897.22
2016-11-29T12:33:32.801Z,895.75
2016-11-29T12:34:33.082Z,897.99
2016-11-29T12:35:33.627Z,899.66
2016-11-29T12:36:33.095Z,902.18
2016-11-29T12:37:33.105Z,904.64
2016-11-29T12:38:33.160Z,906.52
2016-11-29T12:39:32.979Z,906.87
2016-11-29T12:40:33.407Z,907.95
2016-11-29T12:41:33.816Z,912.89
2016-11-29T12:42:33.077Z,913.54
2016-11-29T12:43:32.975Z,912.86
2016-11-29T12:44:33.110Z,912.61
2016-11-29T12:45:33.355Z,905.8
2016-11-29T12:46:33.494Z,905.16